createdAt,value
2023-05-19T00:02:26.064Z,4.20
2023-05-19T00:04:53.235Z,4.17
2023-05-19T00:07:24.298Z,4.07
2023-05-19T00:09:51.208Z,3.70
2023-05-19T00:12:18.098Z,3.93
2023-05-19T00:14:45.012Z,4.07
2023-05-19T00:17:11.983Z,3.80
2023-05-19T00:19:39.412Z,3.80
2023-05-19T00:22:06.194Z,3.50
2023-05-19T00:24:33.284Z,3.80
2023-05-19T00:27:00.026Z,3.87
2023-05-19T00:29:26.740Z,3.50
2023-05-19T00:31:53.507Z,4.07
2023-05-19T00:34:20.414Z,3.50
2023-05-19T00:36:47.072Z,4.10
2023-05-19T00:39:13.829Z,4.30
2023-05-19T00:41:40.645Z,5.20
2023-05-19T00:44:07.822Z,4.40
2023-05-19T00:46:34.540Z,4.43
2023-05-19T00:49:01.199Z,4.30
2023-05-19T00:51:29.583Z,4.10
2023-05-19T00:53:56.646Z,4.63
2023-05-19T00:56:23.576Z,4.30
2023-05-19T00:58:52.032Z,3.90
2023-05-19T01:01:21.429Z,3.73
2023-05-19T01:03:48.836Z,4.47
2023-05-19T01:06:15.733Z,4.07
2023-05-19T01:08:42.376Z,3.40
2023-05-19T01:11:09.156Z,3.50
2023-05-19T01:13:36.828Z,3.43
2023-05-19T01:16:22.561Z,4.73
2023-05-19T01:19:05.781Z,3.93
2023-05-19T01:21:53.745Z,3.43
2023-05-19T01:24:32.347Z,3.60
2023-05-19T01:27:20.069Z,4.03
2023-05-19T01:30:11.808Z,3.67
2023-05-19T01:32:41.897Z,3.23
2023-05-19T01:35:10.258Z,3.37
2023-05-19T01:37:39.209Z,4.07
2023-05-19T01:40:08.087Z,4.50
2023-05-19T01:42:37.864Z,3.20
2023-05-19T01:45:06.741Z,3.83
2023-05-19T01:47:38.204Z,3.70
2023-05-19T01:50:05.457Z,3.67
2023-05-19T01:52:32.857Z,3.93
2023-05-19T01:54:59.948Z,4.70
2023-05-19T01:57:55.591Z,3.40
2023-05-19T02:00:33.543Z,3.60
2023-05-19T02:03:16.964Z,3.27
2023-05-19T02:05:59.224Z,4.00
2023-05-19T02:08:54.285Z,3.57
2023-05-19T02:11:37.528Z,3.07
2023-05-19T02:14:14.887Z,3.50
2023-05-19T02:16:45.602Z,3.53
2023-05-19T02:19:29.321Z,4.17
2023-05-19T02:21:56.482Z,3.40
2023-05-19T02:24:23.311Z,4.10
2023-05-19T02:26:53.996Z,3.77
2023-05-19T02:29:21.064Z,3.37
2023-05-19T02:31:48.013Z,3.13
2023-05-19T02:34:14.730Z,3.37
2023-05-19T02:36:45.399Z,3.87
2023-05-19T02:39:12.499Z,3.70
2023-05-19T02:41:39.463Z,3.27
2023-05-19T02:44:06.211Z,3.63
2023-05-19T02:46:33.199Z,3.77
2023-05-19T02:49:00.284Z,3.93
2023-05-19T02:51:26.968Z,4.07
2023-05-19T02:53:53.609Z,4.37
2023-05-19T02:56:21.322Z,3.37
2023-05-19T02:58:48.133Z,4.80
2023-05-19T03:01:15.042Z,4.00
2023-05-19T03:03:41.847Z,4.53
2023-05-19T03:06:08.776Z,4.07
2023-05-19T03:08:36.169Z,3.10
2023-05-19T03:11:03.535Z,3.57
2023-05-19T03:13:30.251Z,4.03
2023-05-19T03:15:58.803Z,4.10
2023-05-19T03:18:27.007Z,3.73
2023-05-19T03:20:56.611Z,4.17
2023-05-19T03:23:23.256Z,4.13
2023-05-19T03:25:49.946Z,3.77
2023-05-19T03:28:17.212Z,3.77
2023-05-19T03:30:44.390Z,4.00
2023-05-19T03:33:11.605Z,4.07
2023-05-19T03:35:38.449Z,3.17
2023-05-19T03:38:05.137Z,4.13
2023-05-19T03:40:32.048Z,4.00
2023-05-19T03:43:00.954Z,4.70
2023-05-19T03:45:28.416Z,5.20
2023-05-19T03:47:55.354Z,3.80
2023-05-19T03:50:22.754Z,4.23
2023-05-19T03:52:49.460Z,3.57
2023-05-19T03:55:16.348Z,3.93
2023-05-19T03:57:44.322Z,3.80
2023-05-19T04:00:12.358Z,3.77
2023-05-19T04:02:39.708Z,3.83
2023-05-19T04:05:07.163Z,4.33
2023-05-19T04:07:33.950Z,4.73
2023-05-19T04:10:00.682Z,4.77
2023-05-19T04:12:27.311Z,4.70
2023-05-19T04:14:54.100Z,4.90
2023-05-19T04:17:21.623Z,4.30
2023-05-19T04:19:48.260Z,4.30
2023-05-19T04:22:14.910Z,4.57
2023-05-19T04:24:41.578Z,4.30
2023-05-19T04:27:11.925Z,4.40
2023-05-19T04:29:40.033Z,4.50
2023-05-19T04:32:07.754Z,5.07
2023-05-19T04:34:35.521Z,4.17
2023-05-19T04:37:02.899Z,4.47
2023-05-19T04:39:29.565Z,4.80
2023-05-19T04:41:56.637Z,4.20
2023-05-19T04:44:23.358Z,4.70
2023-05-19T04:46:54.279Z,4.00
2023-05-19T04:49:24.372Z,3.70
2023-05-19T04:51:52.704Z,4.40
2023-05-19T04:54:21.361Z,4.87
2023-05-19T04:56:48.008Z,4.00
2023-05-19T04:59:14.701Z,4.20
2023-05-19T05:01:43.175Z,4.07
2023-05-19T05:04:09.974Z,4.07
2023-05-19T05:06:38.427Z,4.63
2023-05-19T05:09:05.143Z,5.10
2023-05-19T05:11:32.199Z,4.70
2023-05-19T05:13:59.236Z,4.13
2023-05-19T05:16:26.939Z,3.53
2023-05-19T05:18:53.927Z,4.57
2023-05-19T05:21:20.762Z,4.90
2023-05-19T05:23:47.716Z,3.60
2023-05-19T05:26:19.537Z,4.67
2023-05-19T05:28:46.179Z,5.30
2023-05-19T05:31:12.868Z,3.00
2023-05-19T05:33:39.689Z,4.87
2023-05-19T05:36:06.688Z,4.43
2023-05-19T05:38:33.484Z,4.77
2023-05-19T05:41:00.989Z,5.03
2023-05-19T05:43:27.788Z,3.87
2023-05-19T05:45:54.517Z,4.40
2023-05-19T05:48:21.595Z,4.37
2023-05-19T05:50:49.091Z,4.53
2023-05-19T05:53:20.134Z,3.40
2023-05-19T05:55:47.734Z,5.20
2023-05-19T05:58:15.009Z,3.60
2023-05-19T06:00:45.400Z,3.53
2023-05-19T06:03:12.341Z,3.43
2023-05-19T06:05:39.461Z,3.63
2023-05-19T06:08:06.462Z,3.90
2023-05-19T06:10:33.511Z,3.17
2023-05-19T06:13:00.394Z,3.40
2023-05-19T06:15:27.127Z,4.00
2023-05-19T06:17:54.688Z,3.80
2023-05-19T06:20:21.854Z,4.20
2023-05-19T06:22:48.633Z,3.00
2023-05-19T06:25:15.733Z,4.37
2023-05-19T06:27:42.459Z,2.50
2023-05-19T06:30:09.664Z,3.80
2023-05-19T06:32:36.394Z,3.00
2023-05-19T06:35:03.213Z,3.00
2023-05-19T06:37:29.920Z,2.90
2023-05-19T06:39:56.795Z,2.80
2023-05-19T06:42:24.659Z,2.70
2023-05-19T06:44:52.205Z,2.50
2023-05-19T06:47:19.557Z,2.80
2023-05-19T06:49:46.336Z,3.30
2023-05-19T06:52:12.972Z,2.50
2023-05-19T06:54:39.690Z,3.10
2023-05-19T06:57:06.426Z,2.60
2023-05-19T06:59:33.187Z,3.50
2023-05-19T07:02:00.166Z,2.83
2023-05-19T07:04:27.321Z,2.80
2023-05-19T07:06:54.963Z,3.10
2023-05-19T07:09:21.889Z,3.43
2023-05-19T07:11:48.647Z,3.20
2023-05-19T07:14:15.331Z,4.03
2023-05-19T07:16:42.060Z,2.73
2023-05-19T07:19:08.922Z,4.10
2023-05-19T07:21:35.804Z,3.23
2023-05-19T07:24:02.555Z,2.63
2023-05-19T07:26:29.591Z,3.60
2023-05-19T07:28:57.786Z,2.47
2023-05-19T07:31:24.505Z,2.70
2023-05-19T07:33:53.129Z,3.23
2023-05-19T07:36:21.390Z,2.37
2023-05-19T07:38:48.135Z,3.23
2023-05-19T07:41:14.893Z,3.60
2023-05-19T07:43:41.616Z,2.57
2023-05-19T07:46:08.299Z,3.30
2023-05-19T07:48:35.005Z,3.43
2023-05-19T07:51:02.342Z,2.60
2023-05-19T07:53:29.086Z,3.03
2023-05-19T07:55:58.380Z,3.03
2023-05-19T07:58:25.583Z,2.97
2023-05-19T08:00:53.291Z,2.60
2023-05-19T08:03:20.795Z,2.43
2023-05-19T08:05:47.819Z,2.40
2023-05-19T08:08:16.809Z,2.80
2023-05-19T08:10:43.782Z,4.80
2023-05-19T08:13:10.621Z,2.83
2023-05-19T08:15:37.648Z,2.90
2023-05-19T08:18:05.299Z,2.30
2023-05-19T08:20:32.764Z,2.57
2023-05-19T08:22:59.845Z,2.77
2023-05-19T08:25:26.509Z,1.90
2023-05-19T08:27:53.187Z,2.60
2023-05-19T08:30:20.038Z,2.37
2023-05-19T08:32:47.058Z,2.33
2023-05-19T08:35:13.860Z,2.50
2023-05-19T08:37:40.946Z,3.10
2023-05-19T08:40:11.854Z,2.70
2023-05-19T08:42:38.597Z,4.20
2023-05-19T08:45:06.341Z,2.60
2023-05-19T08:47:33.494Z,1.77
2023-05-19T08:50:07.745Z,1.80
2023-05-19T08:52:57.751Z,2.30
2023-05-19T08:55:49.516Z,2.30
2023-05-19T08:58:20.369Z,2.80
2023-05-19T09:00:48.171Z,2.97
2023-05-19T09:03:23.251Z,2.67
2023-05-19T09:05:50.961Z,2.63
2023-05-19T09:08:18.397Z,2.70
2023-05-19T09:10:45.218Z,1.93
2023-05-19T09:13:11.941Z,2.27
2023-05-19T09:15:39.889Z,1.90
2023-05-19T09:18:12.064Z,2.10
2023-05-19T09:20:43.780Z,3.90
2023-05-19T09:23:18.203Z,2.40
2023-05-19T09:25:52.518Z,2.77
2023-05-19T09:28:30.606Z,2.50
2023-05-19T09:31:04.333Z,2.53
2023-05-19T09:33:34.202Z,2.40
2023-05-19T09:36:01.587Z,2.50
2023-05-19T09:38:28.400Z,1.83
2023-05-19T09:40:59.338Z,2.20
2023-05-19T09:43:30.323Z,2.00
2023-05-19T09:46:08.053Z,1.87
2023-05-19T09:48:36.261Z,2.33
2023-05-19T09:51:05.056Z,2.30
2023-05-19T09:53:32.479Z,2.30
2023-05-19T09:56:01.608Z,2.27
2023-05-19T09:58:35.286Z,2.33
2023-05-19T10:01:03.781Z,1.80
2023-05-19T10:03:32.803Z,3.13
2023-05-19T10:06:01.647Z,2.40
2023-05-19T10:08:30.639Z,2.17
2023-05-19T10:10:58.271Z,2.17
2023-05-19T10:13:26.456Z,2.27
2023-05-19T10:15:58.628Z,2.20
2023-05-19T10:18:27.824Z,1.77
2023-05-19T10:20:54.732Z,1.90
2023-05-19T10:23:22.255Z,1.97
2023-05-19T10:25:52.261Z,2.03
2023-05-19T10:28:21.328Z,2.07
2023-05-19T10:30:53.299Z,2.07
2023-05-19T10:33:24.211Z,2.07
2023-05-19T10:36:14.397Z,2.03
2023-05-19T10:38:43.378Z,2.17
2023-05-19T10:41:24.579Z,2.20
2023-05-19T10:44:25.005Z,1.67
2023-05-19T10:46:53.517Z,2.20
2023-05-19T10:49:22.696Z,2.23
2023-05-19T10:51:51.668Z,2.03
2023-05-19T10:54:39.088Z,3.03
2023-05-19T10:57:07.038Z,2.27
2023-05-19T10:59:37.098Z,2.00
2023-05-19T11:02:08.502Z,2.20
2023-05-19T11:04:51.912Z,1.80
2023-05-19T11:07:20.477Z,1.80
2023-05-19T11:09:53.202Z,2.10
2023-05-19T11:12:21.773Z,2.30
2023-05-19T11:14:48.912Z,1.30
2023-05-19T11:17:16.307Z,1.53
2023-05-19T11:19:54.173Z,2.43
2023-05-19T11:22:25.988Z,2.83
2023-05-19T11:24:55.098Z,2.00
2023-05-19T11:27:24.624Z,1.77
2023-05-19T11:29:51.795Z,1.80
2023-05-19T11:32:20.104Z,2.00
2023-05-19T11:34:49.140Z,2.10
2023-05-19T11:37:16.187Z,2.30
2023-05-19T11:39:43.784Z,1.80
2023-05-19T11:42:13.481Z,1.70
2023-05-19T11:44:41.410Z,1.80
2023-05-19T11:47:08.462Z,2.13
2023-05-19T11:49:35.390Z,1.63
2023-05-19T11:52:02.486Z,2.30
2023-05-19T11:54:34.844Z,2.23
2023-05-19T11:57:03.716Z,2.40
2023-05-19T11:59:37.754Z,1.80
2023-05-19T12:02:17.930Z,2.00
2023-05-19T12:04:45.517Z,2.20
2023-05-19T12:07:13.676Z,2.10
2023-05-19T12:09:40.524Z,2.20
2023-05-19T12:12:08.033Z,1.60
2023-05-19T12:14:35.854Z,1.83
2023-05-19T12:17:13.860Z,2.20
2023-05-19T12:19:42.924Z,1.50
2023-05-19T12:22:10.207Z,2.10
2023-05-19T12:24:38.049Z,3.17
2023-05-19T12:27:14.948Z,2.10
2023-05-19T12:29:41.710Z,1.73
2023-05-19T12:32:09.246Z,1.50
2023-05-19T12:34:38.233Z,2.37
2023-05-19T12:37:05.961Z,1.80
2023-05-19T12:39:33.700Z,2.10
2023-05-19T12:42:04.552Z,1.97
2023-05-19T12:44:31.542Z,1.97
2023-05-19T12:46:59.575Z,1.97
2023-05-19T12:49:26.312Z,2.23
2023-05-19T12:51:54.085Z,2.33
2023-05-19T12:54:23.602Z,1.53
2023-05-19T12:56:53.877Z,2.13
2023-05-19T12:59:37.466Z,2.50
2023-05-19T13:02:06.376Z,4.80
2023-05-19T13:04:33.295Z,2.93
2023-05-19T13:07:00.018Z,2.20
2023-05-19T13:09:27.821Z,3.40
2023-05-19T13:11:54.792Z,1.80
2023-05-19T13:14:22.078Z,2.00
2023-05-19T13:16:48.898Z,1.63
2023-05-19T13:19:25.265Z,2.20
2023-05-19T13:21:52.623Z,1.70
2023-05-19T13:24:19.330Z,2.27
2023-05-19T13:26:46.093Z,1.70
2023-05-19T13:29:12.767Z,2.10
2023-05-19T13:31:39.489Z,2.40
2023-05-19T13:34:06.090Z,3.53
2023-05-19T13:36:33.348Z,2.20
2023-05-19T13:39:00.808Z,2.13
2023-05-19T13:41:29.287Z,2.00
2023-05-19T13:44:02.056Z,2.23
2023-05-19T13:46:40.799Z,1.37
2023-05-19T13:49:11.712Z,2.00
2023-05-19T13:51:39.462Z,1.60
2023-05-19T13:54:06.113Z,1.70
2023-05-19T13:56:32.828Z,2.30
2023-05-19T13:58:59.498Z,2.63
2023-05-19T14:01:26.275Z,2.80
2023-05-19T14:03:53.114Z,2.07
2023-05-19T14:06:19.870Z,2.00
2023-05-19T14:08:46.617Z,2.40
2023-05-19T14:11:21.527Z,1.70
2023-05-19T14:13:53.096Z,2.33
2023-05-19T14:16:23.123Z,2.47
2023-05-19T14:18:49.965Z,1.60
2023-05-19T14:21:16.682Z,1.90
2023-05-19T14:23:43.309Z,1.40
2023-05-19T14:26:10.088Z,2.40
2023-05-19T14:28:36.727Z,1.60
2023-05-19T14:31:03.489Z,1.90
2023-05-19T14:33:34.923Z,2.00
2023-05-19T14:36:02.264Z,2.20
2023-05-19T14:38:29.537Z,1.77
2023-05-19T14:40:56.490Z,1.80
2023-05-19T14:43:23.352Z,1.60
2023-05-19T14:45:50.334Z,1.60
2023-05-19T14:48:17.440Z,1.80
2023-05-19T14:50:44.425Z,2.27
2023-05-19T14:53:11.144Z,2.40
2023-05-19T14:55:37.795Z,1.63
2023-05-19T14:58:12.858Z,2.20
2023-05-19T15:00:48.115Z,1.57
2023-05-19T15:03:14.925Z,1.80
2023-05-19T15:05:41.638Z,2.00
2023-05-19T15:08:08.340Z,2.63
2023-05-19T15:10:35.128Z,1.77
2023-05-19T15:13:01.835Z,1.50
2023-05-19T15:15:28.506Z,1.70
2023-05-19T15:17:55.277Z,1.67
2023-05-19T15:20:21.951Z,1.60
2023-05-19T15:22:49.058Z,1.83
2023-05-19T15:25:15.816Z,1.70
2023-05-19T15:27:42.484Z,2.03
2023-05-19T15:30:09.480Z,1.70
2023-05-19T15:32:36.418Z,1.60
2023-05-19T15:35:03.136Z,1.70
2023-05-19T15:37:29.788Z,3.73
2023-05-19T15:39:56.444Z,7.10
2023-05-19T15:42:23.088Z,2.17
2023-05-19T15:44:49.763Z,1.53
2023-05-19T15:47:16.430Z,2.40
2023-05-19T15:49:43.147Z,1.80
2023-05-19T15:52:09.845Z,2.00
2023-05-19T15:54:36.498Z,1.90
2023-05-19T15:57:03.166Z,2.00
2023-05-19T15:59:29.835Z,2.07
2023-05-19T16:01:56.692Z,1.70
2023-05-19T16:04:23.492Z,1.23
2023-05-19T16:06:50.487Z,1.60
2023-05-19T16:09:17.151Z,1.37
2023-05-19T16:11:43.769Z,2.27
2023-05-19T16:14:10.624Z,2.20
2023-05-19T16:16:37.313Z,1.40
2023-05-19T16:19:04.068Z,2.53
2023-05-19T16:21:32.133Z,1.83
2023-05-19T16:23:58.798Z,2.20
2023-05-19T16:26:26.334Z,1.40
2023-05-19T16:28:52.968Z,1.73
2023-05-19T16:31:19.581Z,1.97
2023-05-19T16:33:46.308Z,1.70
2023-05-19T16:36:12.934Z,1.93
2023-05-19T16:38:39.533Z,2.57
2023-05-19T16:41:10.810Z,1.90
2023-05-19T16:43:37.551Z,1.53
2023-05-19T16:46:05.224Z,1.87
2023-05-19T16:48:31.978Z,1.67
2023-05-19T16:50:59.364Z,2.17
2023-05-19T16:53:26.049Z,1.60
2023-05-19T16:55:52.708Z,1.83
2023-05-19T16:58:19.330Z,1.80
2023-05-19T17:00:45.967Z,1.57
2023-05-19T17:03:12.932Z,1.57
2023-05-19T17:05:41.935Z,1.90
2023-05-19T17:08:08.931Z,1.70
2023-05-19T17:10:36.035Z,2.13
2023-05-19T17:13:02.738Z,1.63
2023-05-19T17:15:29.648Z,1.40
2023-05-19T17:17:56.409Z,2.40
2023-05-19T17:20:23.103Z,1.30
2023-05-19T17:22:49.728Z,1.67
2023-05-19T17:25:16.410Z,1.83
2023-05-19T17:27:43.047Z,1.73
2023-05-19T17:30:10.081Z,1.27
2023-05-19T17:32:39.271Z,1.63
2023-05-19T17:35:06.904Z,1.57
2023-05-19T17:37:33.599Z,1.47
2023-05-19T17:40:00.295Z,1.77
2023-05-19T17:42:27.324Z,2.23
2023-05-19T17:44:54.096Z,1.50
2023-05-19T17:47:20.983Z,1.60
2023-05-19T17:49:47.912Z,1.63
2023-05-19T17:52:15.842Z,1.63
2023-05-19T17:54:42.688Z,1.57
2023-05-19T17:57:14.664Z,1.40
2023-05-19T17:59:41.456Z,1.60
2023-05-19T18:02:08.863Z,1.60
2023-05-19T18:04:35.962Z,4.70
2023-05-19T18:07:03.583Z,2.37
2023-05-19T18:09:31.281Z,1.93
2023-05-19T18:12:01.963Z,2.13
2023-05-19T18:14:28.736Z,2.20
2023-05-19T18:16:55.539Z,1.70
2023-05-19T18:19:22.362Z,2.10
2023-05-19T18:21:49.086Z,1.73
2023-05-19T18:24:15.908Z,1.50
2023-05-19T18:26:43.410Z,1.70
2023-05-19T18:29:11.166Z,1.70
2023-05-19T18:31:38.107Z,1.63
2023-05-19T18:34:04.821Z,1.70
2023-05-19T18:36:31.719Z,1.67
2023-05-19T18:39:01.945Z,1.77
2023-05-19T18:41:28.659Z,1.10
2023-05-19T18:43:55.356Z,1.43
2023-05-19T18:46:22.131Z,1.40
2023-05-19T18:48:50.669Z,1.77
2023-05-19T18:51:18.669Z,1.37
2023-05-19T18:53:48.610Z,1.50
2023-05-19T18:56:23.208Z,1.73
2023-05-19T18:58:50.011Z,1.40
2023-05-19T19:01:16.875Z,1.10
2023-05-19T19:03:44.885Z,1.20
2023-05-19T19:06:11.632Z,2.10
2023-05-19T19:08:38.530Z,1.43
2023-05-19T19:11:09.213Z,1.53
2023-05-19T19:13:36.248Z,1.67
2023-05-19T19:16:03.253Z,1.40
2023-05-19T19:18:29.932Z,4.30
2023-05-19T19:20:57.627Z,1.50
2023-05-19T19:23:24.432Z,1.77
2023-05-19T19:25:51.285Z,1.60
2023-05-19T19:28:17.954Z,1.57
2023-05-19T19:30:46.126Z,1.43
2023-05-19T19:33:12.859Z,2.00
2023-05-19T19:35:39.685Z,1.60
2023-05-19T19:38:06.438Z,2.43
2023-05-19T19:40:33.212Z,2.10
2023-05-19T19:43:00.224Z,1.60
2023-05-19T19:45:26.981Z,1.57
2023-05-19T19:47:53.689Z,2.03
2023-05-19T19:50:20.476Z,1.20
2023-05-19T19:52:47.102Z,1.83
2023-05-19T19:55:13.873Z,1.80
2023-05-19T19:57:40.724Z,1.53
2023-05-19T20:00:08.466Z,1.57
2023-05-19T20:02:55.204Z,1.33
2023-05-19T20:05:26.341Z,6.70
2023-05-19T20:07:53.063Z,1.70
2023-05-19T20:10:20.232Z,2.00
2023-05-19T20:12:47.780Z,1.70
2023-05-19T20:15:14.796Z,1.53
2023-05-19T20:17:41.495Z,2.23
2023-05-19T20:20:10.752Z,1.33
2023-05-19T20:22:38.786Z,1.80
2023-05-19T20:25:06.024Z,1.10
2023-05-19T20:27:32.708Z,1.30
2023-05-19T20:29:59.431Z,1.50
2023-05-19T20:32:26.162Z,1.20
2023-05-19T20:34:52.899Z,3.00
2023-05-19T20:37:20.971Z,1.80
2023-05-19T20:39:47.805Z,1.53
2023-05-19T20:42:14.613Z,2.00
2023-05-19T20:44:41.569Z,2.60
2023-05-19T20:47:08.728Z,2.07
2023-05-19T20:49:35.547Z,2.37
2023-05-19T20:52:02.333Z,1.50
2023-05-19T20:54:28.995Z,2.70
2023-05-19T20:56:55.726Z,1.27
2023-05-19T20:59:22.375Z,1.53
2023-05-19T21:01:49.137Z,1.53
2023-05-19T21:04:15.960Z,1.50
2023-05-19T21:06:42.751Z,1.23
2023-05-19T21:09:10.629Z,1.40
2023-05-19T21:11:37.334Z,1.87
2023-05-19T21:14:04.294Z,1.97
2023-05-19T21:16:31.968Z,1.10
2023-05-19T21:18:58.829Z,1.93
2023-05-19T21:21:26.131Z,1.50
2023-05-19T21:23:52.956Z,1.20
2023-05-19T21:26:19.642Z,1.43
2023-05-19T21:28:46.304Z,1.40
2023-05-19T21:31:13.044Z,2.30
2023-05-19T21:33:39.739Z,1.73
2023-05-19T21:36:06.810Z,1.60
2023-05-19T21:38:33.539Z,1.27
2023-05-19T21:41:00.203Z,1.20
2023-05-19T21:43:26.889Z,1.70
2023-05-19T21:45:53.576Z,1.73
2023-05-19T21:48:21.425Z,1.53
2023-05-19T21:50:55.448Z,1.47
2023-05-19T21:53:22.142Z,1.40
2023-05-19T21:55:48.959Z,1.20
2023-05-19T21:58:16.077Z,1.17
2023-05-19T22:00:43.397Z,1.23
2023-05-19T22:03:10.120Z,1.37
2023-05-19T22:05:38.217Z,1.57
2023-05-19T22:08:05.055Z,1.33
2023-05-19T22:10:32.176Z,1.57
2023-05-19T22:12:59.112Z,1.50
2023-05-19T22:15:26.642Z,1.50
2023-05-19T22:17:53.380Z,1.40
2023-05-19T22:20:20.122Z,1.43
2023-05-19T22:22:46.985Z,1.50
2023-05-19T22:25:13.726Z,1.53
2023-05-19T22:27:40.350Z,1.87
2023-05-19T22:30:07.673Z,2.53
2023-05-19T22:32:35.110Z,2.67
2023-05-19T22:35:01.799Z,2.00
2023-05-19T22:37:28.981Z,2.00
2023-05-19T22:39:55.842Z,1.67
2023-05-19T22:42:22.471Z,1.20
2023-05-19T22:44:49.194Z,1.07
2023-05-19T22:47:15.954Z,1.00
2023-05-19T22:49:42.826Z,1.37
2023-05-19T22:52:10.955Z,1.17
2023-05-19T22:54:38.223Z,1.43
2023-05-19T22:57:05.214Z,1.27
2023-05-19T22:59:32.019Z,0.97
2023-05-19T23:01:58.666Z,1.13
2023-05-19T23:04:25.394Z,1.60
2023-05-19T23:06:52.205Z,1.10
2023-05-19T23:09:18.967Z,1.20
2023-05-19T23:11:46.059Z,1.57
2023-05-19T23:14:12.696Z,1.57
2023-05-19T23:16:39.491Z,1.27
2023-05-19T23:19:06.947Z,1.20
2023-05-19T23:21:33.648Z,1.27
2023-05-19T23:24:00.332Z,1.07
2023-05-19T23:26:26.991Z,1.57
2023-05-19T23:28:53.683Z,1.10
2023-05-19T23:31:20.439Z,1.03
2023-05-19T23:33:47.120Z,1.30
2023-05-19T23:36:13.979Z,1.27
2023-05-19T23:38:40.784Z,1.37
2023-05-19T23:41:07.548Z,0.90
2023-05-19T23:43:34.290Z,0.97
2023-05-19T23:46:01.175Z,0.97
2023-05-19T23:48:31.480Z,1.10
2023-05-19T23:50:58.657Z,1.10
2023-05-19T23:53:25.579Z,0.90
2023-05-19T23:55:52.407Z,1.10
2023-05-19T23:58:19.164Z,0.90
